createdAt,value
2022-10-30T00:01:37.544Z,168.30
2022-10-30T00:04:04.487Z,166.65
2022-10-30T00:06:31.104Z,158.88
2022-10-30T00:08:57.716Z,168.23
2022-10-30T00:11:24.391Z,144.43
2022-10-30T00:13:51.035Z,112.38
2022-10-30T00:16:18.233Z,165.68
2022-10-30T00:18:44.913Z,130.05
2022-10-30T00:21:14.288Z,103.03
2022-10-30T00:23:56.058Z,107.15
2022-10-30T00:26:23.935Z,72.10
2022-10-30T00:28:53.000Z,91.68
2022-10-30T00:31:20.083Z,94.72
2022-10-30T00:33:51.535Z,104.85
2022-10-30T00:36:18.729Z,98.20
2022-10-30T00:38:45.496Z,111.78
2022-10-30T00:41:18.163Z,112.97
2022-10-30T00:43:45.251Z,94.10
2022-10-30T00:46:25.696Z,64.47
2022-10-30T00:48:58.081Z,54.55
2022-10-30T00:51:28.021Z,92.88
2022-10-30T00:53:57.919Z,106.90
2022-10-30T00:56:24.797Z,85.30
2022-10-30T00:58:57.331Z,87.65
2022-10-30T01:01:26.894Z,61.13
2022-10-30T01:03:57.593Z,67.50
2022-10-30T01:06:25.126Z,81.10
2022-10-30T01:08:57.029Z,90.97
2022-10-30T01:11:26.685Z,92.25
2022-10-30T01:13:55.336Z,83.72
2022-10-30T01:16:46.179Z,89.90
2022-10-30T01:19:14.836Z,68.30
2022-10-30T01:21:57.144Z,106.28
2022-10-30T01:24:34.035Z,77.03
2022-10-30T01:27:23.816Z,52.58
2022-10-30T01:29:56.313Z,47.33
2022-10-30T01:32:54.836Z,78.60
2022-10-30T01:38:03.566Z,76.70
2022-10-30T01:40:30.293Z,70.10
2022-10-30T01:42:58.528Z,56.88
2022-10-30T01:45:46.178Z,80.95
2022-10-30T01:48:27.383Z,57.47
2022-10-30T01:51:03.026Z,50.72
2022-10-30T01:53:45.111Z,67.22
2022-10-30T01:56:18.827Z,67.05
2022-10-30T01:58:55.031Z,56.15
2022-10-30T02:01:23.843Z,59.13
2022-10-30T02:03:51.590Z,68.30
2022-10-30T02:06:18.369Z,71.47
2022-10-30T02:08:45.007Z,56.88
2022-10-30T02:11:12.321Z,55.45
2022-10-30T02:13:39.137Z,48.83
2022-10-30T02:16:06.554Z,46.50
2022-10-30T02:18:33.427Z,45.88
2022-10-30T02:21:00.298Z,54.38
2022-10-30T02:23:26.967Z,59.40
2022-10-30T02:25:53.663Z,70.45
2022-10-30T02:28:20.312Z,58.17
2022-10-30T02:30:46.962Z,70.80
2022-10-30T02:33:13.699Z,58.83
2022-10-30T02:35:40.470Z,85.35
2022-10-30T02:38:07.132Z,57.85
2022-10-30T02:40:33.787Z,56.58
2022-10-30T02:43:00.442Z,56.42
2022-10-30T02:45:27.087Z,74.35
2022-10-30T02:47:53.786Z,73.25
2022-10-30T02:50:20.438Z,57.60
2022-10-30T02:52:47.071Z,57.03
2022-10-30T02:55:13.699Z,61.47
2022-10-30T02:57:40.298Z,51.15
2022-10-30T03:00:07.580Z,52.45
2022-10-30T03:02:34.242Z,62.42
2022-10-30T03:05:04.569Z,53.20
2022-10-30T03:07:31.247Z,60.00
2022-10-30T03:09:57.875Z,49.17
2022-10-30T03:12:24.611Z,77.88
2022-10-30T03:14:54.544Z,51.42
2022-10-30T03:17:21.181Z,65.32
2022-10-30T03:19:47.821Z,56.08
2022-10-30T03:22:14.438Z,67.55
2022-10-30T03:24:41.091Z,60.58
2022-10-30T03:27:07.731Z,48.38
2022-10-30T03:29:34.358Z,50.35
2022-10-30T03:32:00.996Z,64.45
2022-10-30T03:34:27.853Z,62.80
2022-10-30T03:36:54.953Z,67.50
2022-10-30T03:39:21.583Z,49.80
2022-10-30T03:41:48.325Z,58.85
2022-10-30T03:44:14.996Z,62.92
2022-10-30T03:46:41.642Z,59.58
2022-10-30T03:49:08.281Z,48.22
2022-10-30T03:51:34.930Z,64.18
2022-10-30T03:54:01.549Z,58.90
2022-10-30T03:56:28.231Z,62.92
2022-10-30T03:58:54.890Z,65.90
2022-10-30T04:01:21.647Z,61.17
2022-10-30T04:03:48.408Z,45.80
2022-10-30T04:06:15.035Z,51.85
2022-10-30T04:08:41.701Z,66.75
2022-10-30T04:11:11.181Z,64.18
2022-10-30T04:13:37.911Z,86.43
2022-10-30T04:16:06.562Z,84.53
2022-10-30T04:18:33.194Z,66.57
2022-10-30T04:21:00.868Z,52.38
2022-10-30T04:23:27.743Z,50.10
2022-10-30T04:25:54.532Z,53.50
2022-10-30T04:28:21.672Z,54.08
2022-10-30T04:30:48.422Z,59.67
2022-10-30T04:33:15.531Z,56.20
2022-10-30T04:35:43.071Z,53.40
2022-10-30T04:38:12.666Z,57.65
2022-10-30T04:40:41.457Z,65.50
2022-10-30T04:43:09.221Z,74.20
2022-10-30T04:45:37.052Z,52.20
2022-10-30T04:48:12.574Z,69.10
2022-10-30T04:50:39.498Z,129.40
2022-10-30T04:53:10.430Z,117.78
2022-10-30T04:55:37.079Z,166.57
2022-10-30T04:58:05.194Z,168.07
2022-10-30T05:00:32.217Z,206.75
2022-10-30T05:03:00.964Z,201.85
2022-10-30T05:05:29.994Z,204.40
2022-10-30T05:07:57.258Z,162.88
2022-10-30T05:10:24.301Z,178.90
2022-10-30T05:12:53.502Z,182.60
2022-10-30T05:15:20.373Z,154.75
2022-10-30T05:17:51.731Z,101.97
2022-10-30T05:20:19.096Z,80.38
2022-10-30T05:22:46.153Z,82.68
2022-10-30T05:25:12.870Z,83.68
2022-10-30T05:27:39.531Z,102.70
2022-10-30T05:30:06.731Z,109.63
2022-10-30T05:32:33.757Z,107.57
2022-10-30T05:35:00.392Z,99.82
2022-10-30T05:37:27.275Z,117.25
2022-10-30T05:39:53.877Z,111.32
2022-10-30T05:42:20.617Z,133.80
2022-10-30T05:45:00.232Z,131.68
2022-10-30T05:47:27.933Z,109.30
2022-10-30T05:49:54.601Z,91.68
2022-10-30T05:52:21.317Z,97.57
2022-10-30T05:54:49.695Z,101.65
2022-10-30T05:57:16.368Z,98.07
2022-10-30T05:59:44.007Z,105.20
2022-10-30T06:02:10.683Z,89.25
2022-10-30T06:04:37.469Z,73.07
2022-10-30T06:07:04.210Z,94.15
2022-10-30T06:09:30.791Z,81.43
2022-10-30T06:11:58.592Z,77.40
2022-10-30T06:14:25.243Z,69.93
2022-10-30T06:16:51.918Z,99.70
2022-10-30T06:19:19.209Z,106.20
2022-10-30T06:21:46.806Z,131.32
2022-10-30T06:24:14.353Z,99.55
2022-10-30T06:26:42.272Z,97.13
2022-10-30T06:29:08.969Z,128.35
2022-10-30T06:31:35.585Z,116.53
2022-10-30T06:34:02.253Z,101.00
2022-10-30T06:36:29.013Z,124.75
2022-10-30T06:38:55.709Z,116.82
2022-10-30T06:41:29.080Z,92.95
2022-10-30T06:43:56.897Z,103.63
2022-10-30T06:46:26.931Z,127.82
2022-10-30T06:48:57.391Z,112.80
2022-10-30T06:51:24.052Z,120.60
2022-10-30T06:53:50.710Z,110.40
2022-10-30T06:56:17.287Z,98.00
2022-10-30T06:58:43.985Z,101.35
2022-10-30T07:01:10.698Z,102.93
2022-10-30T07:03:37.429Z,98.80
2022-10-30T07:06:07.678Z,104.03
2022-10-30T07:08:34.325Z,90.40
2022-10-30T07:11:00.965Z,98.15
2022-10-30T07:13:27.556Z,115.82
2022-10-30T07:15:57.466Z,116.82
2022-10-30T07:18:24.088Z,120.53
2022-10-30T07:20:55.443Z,202.02
2022-10-30T07:23:22.318Z,142.35
2022-10-30T07:25:49.026Z,148.32
2022-10-30T07:28:15.705Z,162.77
2022-10-30T07:30:42.380Z,166.07
2022-10-30T07:33:10.182Z,164.23
2022-10-30T07:35:36.995Z,147.77
2022-10-30T07:38:06.730Z,174.23
2022-10-30T07:40:34.540Z,208.00
2022-10-30T07:43:03.390Z,236.63
2022-10-30T07:45:31.075Z,168.88
2022-10-30T07:47:58.228Z,249.63
2022-10-30T07:50:25.127Z,193.60
2022-10-30T07:52:51.845Z,195.57
2022-10-30T07:55:18.733Z,183.20
2022-10-30T07:57:45.382Z,274.83
2022-10-30T08:00:14.005Z,208.32
2022-10-30T08:02:41.098Z,181.63
2022-10-30T08:05:09.191Z,206.40
2022-10-30T08:07:37.927Z,203.27
2022-10-30T08:10:05.904Z,198.70
2022-10-30T08:12:34.302Z,216.73
2022-10-30T08:15:01.172Z,339.85
2022-10-30T08:17:28.397Z,228.60
2022-10-30T08:19:55.519Z,270.40
2022-10-30T08:22:22.185Z,182.05
2022-10-30T08:24:48.901Z,207.82
2022-10-30T08:27:15.639Z,187.30
2022-10-30T08:29:42.339Z,211.13
2022-10-30T08:32:09.970Z,243.98
2022-10-30T08:34:36.631Z,374.50
2022-10-30T08:37:03.331Z,175.77
2022-10-30T08:39:30.007Z,241.93
2022-10-30T08:41:59.821Z,194.50
2022-10-30T08:44:26.988Z,268.33
2022-10-30T08:46:53.648Z,186.10
2022-10-30T08:49:20.395Z,206.25
2022-10-30T08:51:47.179Z,236.95
2022-10-30T08:54:13.792Z,242.85
2022-10-30T08:56:40.418Z,222.98
2022-10-30T08:59:07.103Z,245.05
2022-10-30T09:01:33.854Z,205.45
2022-10-30T09:04:00.552Z,228.07
2022-10-30T09:06:27.198Z,253.02
2022-10-30T09:08:53.855Z,203.70
2022-10-30T09:11:20.505Z,233.73
2022-10-30T09:13:49.336Z,209.13
2022-10-30T09:16:15.982Z,221.90
2022-10-30T09:18:42.698Z,212.88
2022-10-30T09:21:09.381Z,201.32
2022-10-30T09:23:36.055Z,185.35
2022-10-30T09:26:02.793Z,199.10
2022-10-30T09:28:29.464Z,209.98
2022-10-30T09:31:01.541Z,210.98
2022-10-30T09:33:28.391Z,202.82
2022-10-30T09:35:55.006Z,192.15
2022-10-30T09:38:21.664Z,177.02
2022-10-30T09:41:05.312Z,190.05
2022-10-30T09:43:52.095Z,185.55
2022-10-30T09:46:20.114Z,182.85
2022-10-30T09:49:11.945Z,207.27
2022-10-30T09:52:13.705Z,198.20
2022-10-30T09:54:56.806Z,180.40
2022-10-30T09:57:32.580Z,159.32
2022-10-30T10:00:03.847Z,147.52
2022-10-30T10:02:35.632Z,141.43
2022-10-30T10:05:14.516Z,153.23
2022-10-30T10:07:46.827Z,131.93
2022-10-30T10:10:22.410Z,129.93
2022-10-30T10:12:55.743Z,139.27
2022-10-30T10:15:48.779Z,123.72
2022-10-30T10:18:25.720Z,118.55
2022-10-30T10:20:57.649Z,116.50
2022-10-30T10:23:35.778Z,119.10
2022-10-30T10:26:14.839Z,124.57
2022-10-30T10:28:59.695Z,108.00
2022-10-30T10:31:43.355Z,114.95
2022-10-30T10:34:20.993Z,102.50
2022-10-30T10:37:06.032Z,91.40
2022-10-30T10:40:03.160Z,96.75
2022-10-30T10:42:46.206Z,93.00
2022-10-30T10:45:12.840Z,90.32
2022-10-30T10:48:10.092Z,87.82
2022-10-30T10:50:47.137Z,89.68
2022-10-30T10:53:44.355Z,80.65
2022-10-30T10:58:51.695Z,85.22
2022-10-30T11:01:23.678Z,78.10
2022-10-30T11:03:57.835Z,90.60
2022-10-30T11:06:27.907Z,93.35
2022-10-30T11:09:12.793Z,89.72
2022-10-30T11:11:39.456Z,85.35
2022-10-30T11:14:15.711Z,87.22
2022-10-30T11:19:30.330Z,80.72
2022-10-30T11:21:58.330Z,89.97
2022-10-30T11:24:31.206Z,83.60
2022-10-30T11:27:15.503Z,86.60
2022-10-30T11:29:49.431Z,78.63
2022-10-30T11:32:22.639Z,74.97
2022-10-30T11:35:13.498Z,80.47
2022-10-30T11:37:43.045Z,72.07
2022-10-30T11:40:20.398Z,69.15
2022-10-30T11:42:59.617Z,68.20
2022-10-30T11:45:39.926Z,78.40
2022-10-30T11:48:19.906Z,61.83
2022-10-30T11:50:49.306Z,57.33
2022-10-30T11:53:23.016Z,54.67
2022-10-30T11:55:50.847Z,41.17
2022-10-30T11:58:35.766Z,44.85
2022-10-30T12:01:12.236Z,37.40
2022-10-30T12:03:40.925Z,62.45
2022-10-30T12:06:09.355Z,55.13
2022-10-30T12:08:36.080Z,54.25
2022-10-30T12:11:05.492Z,56.53
2022-10-30T12:13:39.184Z,57.28
2022-10-30T12:16:14.682Z,66.07
2022-10-30T12:18:42.932Z,57.97
2022-10-30T12:21:10.263Z,59.88
2022-10-30T12:23:38.140Z,61.20
2022-10-30T12:26:11.032Z,51.53
2022-10-30T12:28:39.268Z,53.60
2022-10-30T12:31:19.518Z,47.75
2022-10-30T12:33:58.566Z,51.33
2022-10-30T12:36:31.032Z,57.97
2022-10-30T12:39:03.679Z,54.72
2022-10-30T12:41:51.230Z,53.92
2022-10-30T12:44:26.995Z,60.90
2022-10-30T12:47:01.306Z,53.67
2022-10-30T12:49:34.139Z,50.20
2022-10-30T12:52:07.546Z,54.00
2022-10-30T12:54:42.736Z,49.05
2022-10-30T12:57:22.673Z,44.78
2022-10-30T13:00:10.006Z,48.03
2022-10-30T13:03:07.104Z,47.35
2022-10-30T13:08:22.339Z,43.35
2022-10-30T13:10:54.869Z,53.65
2022-10-30T13:13:29.142Z,55.25
2022-10-30T13:15:58.672Z,52.75
2022-10-30T13:18:27.240Z,48.28
2022-10-30T13:21:08.495Z,48.58
2022-10-30T13:23:46.410Z,52.40
2022-10-30T13:26:28.896Z,37.25
2022-10-30T13:29:12.020Z,40.90
2022-10-30T13:32:09.137Z,36.95
2022-10-30T13:37:27.520Z,31.33
2022-10-30T13:40:24.748Z,26.80
2022-10-30T13:43:26.661Z,21.48
2022-10-30T13:46:17.935Z,24.17
2022-10-30T13:49:10.161Z,28.83
2022-10-30T13:51:53.157Z,23.73
2022-10-30T13:54:38.789Z,21.55
2022-10-30T13:57:23.821Z,26.07
2022-10-30T14:00:11.504Z,22.33
2022-10-30T14:02:53.545Z,21.08
2022-10-30T14:05:33.784Z,20.70
2022-10-30T14:08:15.670Z,18.45
2022-10-30T14:10:42.268Z,16.02
2022-10-30T14:13:26.963Z,18.98
2022-10-30T14:15:55.395Z,20.58
2022-10-30T14:18:25.712Z,18.25
2022-10-30T14:20:54.412Z,18.70
2022-10-30T14:23:22.845Z,22.23
2022-10-30T14:26:05.902Z,21.52
2022-10-30T14:28:38.838Z,18.50
2022-10-30T14:31:10.297Z,17.30
2022-10-30T14:33:46.313Z,18.83
2022-10-30T14:36:28.351Z,17.55
2022-10-30T14:39:00.392Z,13.68
2022-10-30T14:41:44.915Z,16.00
2022-10-30T14:44:22.844Z,12.85
2022-10-30T14:47:00.818Z,14.73
2022-10-30T14:49:46.559Z,21.98
2022-10-30T14:52:28.453Z,19.75
2022-10-30T14:55:00.049Z,19.13
2022-10-30T14:57:48.247Z,12.00
2022-10-30T15:00:35.121Z,14.65
2022-10-30T15:03:15.540Z,17.75
2022-10-30T15:06:17.193Z,12.10
2022-10-30T15:08:57.982Z,12.32
2022-10-30T15:11:39.916Z,21.75
2022-10-30T15:14:20.972Z,17.08
2022-10-30T15:16:51.472Z,16.65
2022-10-30T15:19:24.118Z,15.20
2022-10-30T15:21:54.019Z,17.40
2022-10-30T15:24:29.569Z,25.73
2022-10-30T15:27:01.038Z,14.52
2022-10-30T15:29:30.543Z,12.70
2022-10-30T15:32:00.981Z,12.93
2022-10-30T15:34:29.600Z,17.98
2022-10-30T15:36:56.623Z,14.13
2022-10-30T15:39:23.722Z,16.58
2022-10-30T15:41:54.087Z,20.55
2022-10-30T15:44:26.897Z,17.60
2022-10-30T15:46:55.677Z,24.85
2022-10-30T15:49:30.150Z,23.17
2022-10-30T15:51:57.193Z,19.85
2022-10-30T15:54:25.910Z,18.83
2022-10-30T15:57:31.739Z,14.95
2022-10-30T15:59:51.609Z,13.57
2022-10-30T16:02:22.332Z,16.70
2022-10-30T16:04:50.056Z,17.98
2022-10-30T16:07:22.267Z,13.05
2022-10-30T16:10:01.405Z,14.73
2022-10-30T16:12:30.847Z,20.63
2022-10-30T16:15:01.416Z,23.52
2022-10-30T16:17:28.492Z,23.25
2022-10-30T16:20:01.014Z,27.00
2022-10-30T16:22:34.442Z,17.33
2022-10-30T16:25:01.647Z,17.42
2022-10-30T16:27:28.321Z,16.00
2022-10-30T16:29:59.515Z,28.27
2022-10-30T16:32:33.429Z,15.07
2022-10-30T16:35:03.154Z,19.17
2022-10-30T16:37:36.621Z,19.15
2022-10-30T16:40:12.283Z,21.92
2022-10-30T16:42:39.264Z,20.50
2022-10-30T16:45:45.719Z,24.83
2022-10-30T16:48:19.526Z,19.77
2022-10-30T16:50:47.195Z,22.10
2022-10-30T16:53:29.756Z,14.60
2022-10-30T16:55:58.173Z,14.90
2022-10-30T16:58:28.263Z,17.77
2022-10-30T17:01:02.708Z,23.80
2022-10-30T17:03:39.579Z,18.55
2022-10-30T17:06:31.342Z,18.00
2022-10-30T17:09:01.375Z,25.88
2022-10-30T17:11:46.319Z,17.85
2022-10-30T17:14:19.758Z,14.02
2022-10-30T17:16:57.566Z,21.13
2022-10-30T17:19:39.326Z,21.50
2022-10-30T17:22:12.811Z,23.20
2022-10-30T17:24:39.606Z,19.80
2022-10-30T17:27:23.266Z,21.02
2022-10-30T17:29:49.855Z,17.88
2022-10-30T17:32:21.953Z,23.73
2022-10-30T17:35:00.099Z,18.15
2022-10-30T17:37:27.248Z,19.80
2022-10-30T17:39:53.906Z,23.67
2022-10-30T17:42:20.719Z,18.63
2022-10-30T17:44:47.806Z,21.08
2022-10-30T17:47:17.578Z,27.67
2022-10-30T17:49:45.081Z,22.88
2022-10-30T17:52:14.677Z,21.98
2022-10-30T17:54:42.100Z,24.63
2022-10-30T17:57:11.751Z,30.00
2022-10-30T17:59:39.281Z,27.38
2022-10-30T18:02:16.045Z,29.80
2022-10-30T18:04:43.606Z,28.00
2022-10-30T18:07:13.074Z,37.10
2022-10-30T18:09:40.211Z,26.30
2022-10-30T18:12:12.307Z,30.90
2022-10-30T18:14:38.920Z,26.95
2022-10-30T18:17:05.874Z,23.33
2022-10-30T18:19:32.534Z,26.05
2022-10-30T18:21:59.233Z,26.27
2022-10-30T18:24:25.868Z,27.63
2022-10-30T18:26:53.967Z,26.40
2022-10-30T18:29:21.094Z,26.52
2022-10-30T18:31:47.856Z,21.20
2022-10-30T18:34:18.267Z,27.63
2022-10-30T18:36:45.032Z,28.80
2022-10-30T18:39:13.010Z,24.40
2022-10-30T18:41:42.980Z,29.23
2022-10-30T18:44:18.286Z,24.83
2022-10-30T18:46:45.811Z,18.67
2022-10-30T18:49:12.910Z,28.02
2022-10-30T18:51:40.247Z,23.20
2022-10-30T18:54:14.064Z,25.40
2022-10-30T18:56:40.906Z,30.15
2022-10-30T18:59:07.505Z,20.50
2022-10-30T19:01:35.154Z,19.70
2022-10-30T19:04:03.761Z,23.40
2022-10-30T19:06:32.859Z,19.17
2022-10-30T19:09:02.820Z,28.58
2022-10-30T19:11:31.784Z,25.08
2022-10-30T19:13:59.199Z,23.65
2022-10-30T19:16:25.874Z,28.88
2022-10-30T19:18:53.038Z,23.27
2022-10-30T19:21:26.091Z,18.08
2022-10-30T19:23:54.509Z,25.45
2022-10-30T19:26:21.181Z,20.00
2022-10-30T19:28:47.821Z,21.85
2022-10-30T19:31:17.372Z,26.77
2022-10-30T19:33:44.728Z,24.88
2022-10-30T19:36:36.181Z,21.70
2022-10-30T19:39:09.118Z,18.92
2022-10-30T19:41:36.912Z,20.08
2022-10-30T19:44:04.277Z,23.88
2022-10-30T19:46:31.035Z,21.65
2022-10-30T19:48:58.945Z,24.38
2022-10-30T19:51:27.942Z,21.38
2022-10-30T19:53:54.642Z,20.95
2022-10-30T19:56:21.527Z,25.85
2022-10-30T19:58:48.587Z,24.45
2022-10-30T20:01:16.048Z,21.63
2022-10-30T20:03:42.930Z,18.38
2022-10-30T20:06:12.441Z,22.92
2022-10-30T20:08:39.269Z,19.20
2022-10-30T20:11:05.952Z,17.05
2022-10-30T20:13:33.557Z,21.48
2022-10-30T20:16:05.354Z,18.23
2022-10-30T20:18:35.085Z,22.20
2022-10-30T20:21:08.263Z,19.90
2022-10-30T20:23:35.783Z,22.50
2022-10-30T20:26:06.569Z,21.05
2022-10-30T20:28:36.511Z,16.63
2022-10-30T20:31:05.358Z,20.23
2022-10-30T20:33:32.125Z,16.58
2022-10-30T20:35:58.791Z,17.40
2022-10-30T20:38:29.366Z,23.38
2022-10-30T20:40:57.976Z,23.90
2022-10-30T20:43:29.402Z,19.95
2022-10-30T20:45:58.291Z,20.00
2022-10-30T20:48:26.219Z,14.93
2022-10-30T20:50:54.607Z,18.55
2022-10-30T20:53:21.234Z,21.05
2022-10-30T20:55:48.145Z,13.98
2022-10-30T20:58:14.802Z,15.93
2022-10-30T21:00:41.665Z,18.23
2022-10-30T21:03:11.255Z,15.10
2022-10-30T21:05:43.839Z,21.20
2022-10-30T21:08:11.059Z,15.93
2022-10-30T21:10:38.885Z,21.10
2022-10-30T21:13:08.791Z,20.77
2022-10-30T21:15:39.477Z,16.05
2022-10-30T21:18:06.690Z,24.45
2022-10-30T21:20:33.429Z,17.35
2022-10-30T21:23:00.616Z,21.23
2022-10-30T21:25:27.362Z,20.52
2022-10-30T21:27:56.560Z,19.83
2022-10-30T21:30:23.377Z,19.65
2022-10-30T21:32:50.496Z,18.45
2022-10-30T21:35:17.537Z,19.92
2022-10-30T21:37:44.145Z,25.10
2022-10-30T21:40:11.401Z,20.98
2022-10-30T21:42:38.060Z,14.70
2022-10-30T21:45:06.040Z,17.98
2022-10-30T21:47:32.649Z,22.33
2022-10-30T21:49:59.296Z,18.70
2022-10-30T21:52:25.916Z,18.95
2022-10-30T21:54:52.560Z,16.67
2022-10-30T21:57:19.413Z,18.25
2022-10-30T21:59:46.063Z,18.75
2022-10-30T22:02:15.173Z,22.15
2022-10-30T22:04:42.014Z,16.98
2022-10-30T22:07:08.868Z,21.55
2022-10-30T22:09:35.903Z,21.35
2022-10-30T22:12:02.555Z,23.75
2022-10-30T22:14:29.463Z,17.23
2022-10-30T22:16:56.290Z,27.48
2022-10-30T22:19:22.991Z,19.88
2022-10-30T22:21:49.630Z,18.77
2022-10-30T22:24:17.348Z,23.45
2022-10-30T22:26:46.571Z,29.80
2022-10-30T22:29:13.357Z,23.20
2022-10-30T22:31:40.066Z,33.80
2022-10-30T22:34:06.672Z,30.35
2022-10-30T22:36:33.618Z,30.88
2022-10-30T22:39:02.735Z,32.25
2022-10-30T22:41:34.453Z,31.33
2022-10-30T22:44:08.028Z,28.73
2022-10-30T22:46:36.289Z,37.63
2022-10-30T22:49:03.293Z,32.17
2022-10-30T22:51:33.393Z,30.38
2022-10-30T22:54:02.081Z,28.65
2022-10-30T22:56:32.184Z,28.05
2022-10-30T22:59:02.389Z,46.35
2022-10-30T23:01:31.626Z,34.72
2022-10-30T23:04:00.656Z,41.30
2022-10-30T23:06:29.037Z,47.65
2022-10-30T23:08:58.257Z,19.25
2022-10-30T23:11:29.438Z,41.53
2022-10-30T23:13:56.801Z,39.85
2022-10-30T23:16:25.370Z,37.53
2022-10-30T23:18:54.605Z,51.67
2022-10-30T23:21:23.332Z,53.95
2022-10-30T23:23:53.238Z,53.97
2022-10-30T23:26:24.294Z,48.42
2022-10-30T23:28:53.318Z,55.70
2022-10-30T23:31:22.912Z,100.80
2022-10-30T23:33:51.072Z,103.88
2022-10-30T23:36:18.441Z,51.67
2022-10-30T23:38:45.583Z,84.45
2022-10-30T23:41:12.207Z,58.53
2022-10-30T23:43:38.870Z,66.03
2022-10-30T23:46:05.703Z,50.60
2022-10-30T23:48:32.437Z,76.05
2022-10-30T23:50:59.092Z,54.50
2022-10-30T23:53:25.733Z,60.53
2022-10-30T23:55:54.050Z,110.53
2022-10-30T23:58:21.327Z,48.95
